sensor_id;sensor_type;location;lat;lon;timestamp;P1;durP1;ratioP1;P2;durP2;ratioP2
19235;SDS011;9752;54.270;12.470;2023-08-20T00:04:33;106.57;;;58.03;;
19235;SDS011;9752;54.270;12.470;2023-08-20T00:09:39;86.93;;;49.07;;
19235;SDS011;9752;54.270;12.470;2023-08-20T00:14:53;59.17;;;40.63;;
19235;SDS011;9752;54.270;12.470;2023-08-20T00:19:58;54.27;;;39.37;;
19235;SDS011;9752;54.270;12.470;2023-08-20T00:25:02;53.03;;;40.60;;
19235;SDS011;9752;54.270;12.470;2023-08-20T00:30:06;51.93;;;34.53;;
19235;SDS011;9752;54.270;12.470;2023-08-20T00:35:08;45.93;;;33.00;;
19235;SDS011;9752;54.270;12.470;2023-08-20T00:40:12;52.50;;;34.70;;
19235;SDS011;9752;54.270;12.470;2023-08-20T00:45:14;38.33;;;29.03;;
19235;SDS011;9752;54.270;12.470;2023-08-20T00:50:17;38.10;;;28.43;;
19235;SDS011;9752;54.270;12.470;2023-08-20T00:55:21;46.57;;;31.13;;
19235;SDS011;9752;54.270;12.470;2023-08-20T01:00:23;79.80;;;40.63;;
19235;SDS011;9752;54.270;12.470;2023-08-20T01:05:25;34.47;;;27.93;;
19235;SDS011;9752;54.270;12.470;2023-08-20T01:10:32;38.87;;;28.07;;
19235;SDS011;9752;54.270;12.470;2023-08-20T01:15:39;40.97;;;28.57;;
19235;SDS011;9752;54.270;12.470;2023-08-20T01:20:41;34.53;;;27.47;;
19235;SDS011;9752;54.270;12.470;2023-08-20T01:25:57;40.50;;;30.20;;
19235;SDS011;9752;54.270;12.470;2023-08-20T01:31:10;40.03;;;28.20;;
19235;SDS011;9752;54.270;12.470;2023-08-20T01:36:13;41.50;;;28.90;;
19235;SDS011;9752;54.270;12.470;2023-08-20T01:41:15;47.83;;;31.10;;
19235;SDS011;9752;54.270;12.470;2023-08-20T01:46:18;45.20;;;28.20;;
19235;SDS011;9752;54.270;12.470;2023-08-20T01:51:20;41.53;;;27.17;;
19235;SDS011;9752;54.270;12.470;2023-08-20T01:56:22;63.37;;;32.33;;
19235;SDS011;9752;54.270;12.470;2023-08-20T02:01:25;44.67;;;29.27;;
19235;SDS011;9752;54.270;12.470;2023-08-20T02:06:27;35.23;;;28.17;;
19235;SDS011;9752;54.270;12.470;2023-08-20T02:11:29;96.83;;;42.00;;
19235;SDS011;9752;54.270;12.470;2023-08-20T02:16:34;283.13;;;76.83;;
19235;SDS011;9752;54.270;12.470;2023-08-20T02:21:37;145.27;;;51.47;;
19235;SDS011;9752;54.270;12.470;2023-08-20T02:26:40;172.10;;;57.23;;
19235;SDS011;9752;54.270;12.470;2023-08-20T02:31:43;296.90;;;78.27;;
19235;SDS011;9752;54.270;12.470;2023-08-20T02:36:44;133.60;;;53.63;;
19235;SDS011;9752;54.270;12.470;2023-08-20T02:41:46;290.90;;;78.90;;
19235;SDS011;9752;54.270;12.470;2023-08-20T02:46:49;144.10;;;55.93;;
19235;SDS011;9752;54.270;12.470;2023-08-20T02:51:51;74.50;;;43.10;;
19235;SDS011;9752;54.270;12.470;2023-08-20T02:56:52;156.90;;;73.00;;
19235;SDS011;9752;54.270;12.470;2023-08-20T03:01:56;72.90;;;51.60;;
19235;SDS011;9752;54.270;12.470;2023-08-20T03:06:57;95.93;;;56.37;;
19235;SDS011;9752;54.270;12.470;2023-08-20T03:11:59;105.10;;;58.30;;
19235;SDS011;9752;54.270;12.470;2023-08-20T03:17:02;112.23;;;60.37;;
19235;SDS011;9752;54.270;12.470;2023-08-20T03:22:04;97.77;;;50.83;;
19235;SDS011;9752;54.270;12.470;2023-08-20T03:27:06;90.93;;;50.43;;
19235;SDS011;9752;54.270;12.470;2023-08-20T03:32:09;120.13;;;61.90;;
19235;SDS011;9752;54.270;12.470;2023-08-20T03:37:11;117.07;;;62.37;;
19235;SDS011;9752;54.270;12.470;2023-08-20T03:42:13;131.90;;;66.40;;
19235;SDS011;9752;54.270;12.470;2023-08-20T03:47:16;139.10;;;69.70;;
19235;SDS011;9752;54.270;12.470;2023-08-20T03:52:20;125.10;;;64.80;;
19235;SDS011;9752;54.270;12.470;2023-08-20T03:57:22;146.90;;;69.03;;
19235;SDS011;9752;54.270;12.470;2023-08-20T04:02:26;144.83;;;72.47;;
19235;SDS011;9752;54.270;12.470;2023-08-20T04:07:28;169.57;;;73.23;;
19235;SDS011;9752;54.270;12.470;2023-08-20T04:12:30;137.87;;;66.17;;
19235;SDS011;9752;54.270;12.470;2023-08-20T04:17:33;140.63;;;70.67;;
19235;SDS011;9752;54.270;12.470;2023-08-20T04:22:35;128.73;;;65.23;;
19235;SDS011;9752;54.270;12.470;2023-08-20T04:27:37;139.67;;;69.43;;
19235;SDS011;9752;54.270;12.470;2023-08-20T04:32:41;144.20;;;68.50;;
19235;SDS011;9752;54.270;12.470;2023-08-20T04:37:43;133.87;;;65.73;;
19235;SDS011;9752;54.270;12.470;2023-08-20T04:42:45;141.03;;;72.67;;
19235;SDS011;9752;54.270;12.470;2023-08-20T04:47:48;134.03;;;68.37;;
19235;SDS011;9752;54.270;12.470;2023-08-20T04:52:50;122.50;;;60.37;;
19235;SDS011;9752;54.270;12.470;2023-08-20T04:57:52;118.53;;;65.87;;
19235;SDS011;9752;54.270;12.470;2023-08-20T05:02:55;108.80;;;59.10;;
19235;SDS011;9752;54.270;12.470;2023-08-20T05:07:57;112.53;;;64.47;;
19235;SDS011;9752;54.270;12.470;2023-08-20T05:12:58;111.77;;;62.83;;
19235;SDS011;9752;54.270;12.470;2023-08-20T05:18:02;112.13;;;62.00;;
19235;SDS011;9752;54.270;12.470;2023-08-20T05:23:04;105.40;;;59.73;;
19235;SDS011;9752;54.270;12.470;2023-08-20T05:28:06;94.13;;;57.83;;
19235;SDS011;9752;54.270;12.470;2023-08-20T05:33:09;96.93;;;54.67;;
19235;SDS011;9752;54.270;12.470;2023-08-20T05:38:11;84.00;;;49.60;;
19235;SDS011;9752;54.270;12.470;2023-08-20T05:43:13;68.17;;;41.60;;
19235;SDS011;9752;54.270;12.470;2023-08-20T05:48:17;64.63;;;41.40;;
19235;SDS011;9752;54.270;12.470;2023-08-20T05:53:19;60.07;;;38.10;;
19235;SDS011;9752;54.270;12.470;2023-08-20T05:58:21;59.90;;;40.33;;
19235;SDS011;9752;54.270;12.470;2023-08-20T06:03:24;43.40;;;32.10;;
19235;SDS011;9752;54.270;12.470;2023-08-20T06:08:25;39.53;;;30.20;;
19235;SDS011;9752;54.270;12.470;2023-08-20T06:13:27;43.33;;;30.87;;
19235;SDS011;9752;54.270;12.470;2023-08-20T06:18:30;39.37;;;27.07;;
19235;SDS011;9752;54.270;12.470;2023-08-20T06:23:32;35.50;;;24.87;;
19235;SDS011;9752;54.270;12.470;2023-08-20T06:28:33;34.80;;;22.23;;
19235;SDS011;9752;54.270;12.470;2023-08-20T06:33:36;32.03;;;21.77;;
19235;SDS011;9752;54.270;12.470;2023-08-20T06:38:38;30.53;;;21.43;;
19235;SDS011;9752;54.270;12.470;2023-08-20T06:43:40;26.53;;;19.87;;
19235;SDS011;9752;54.270;12.470;2023-08-20T06:48:43;28.00;;;20.60;;
19235;SDS011;9752;54.270;12.470;2023-08-20T06:53:44;20.77;;;17.47;;
19235;SDS011;9752;54.270;12.470;2023-08-20T06:58:46;20.87;;;17.03;;
19235;SDS011;9752;54.270;12.470;2023-08-20T07:03:49;21.97;;;15.17;;
19235;SDS011;9752;54.270;12.470;2023-08-20T07:08:51;17.50;;;14.40;;
19235;SDS011;9752;54.270;12.470;2023-08-20T07:13:52;14.97;;;13.37;;
19235;SDS011;9752;54.270;12.470;2023-08-20T07:18:55;16.50;;;14.37;;
19235;SDS011;9752;54.270;12.470;2023-08-20T07:23:57;17.57;;;14.50;;
19235;SDS011;9752;54.270;12.470;2023-08-20T07:28:59;14.37;;;12.67;;
19235;SDS011;9752;54.270;12.470;2023-08-20T07:34:02;15.40;;;13.43;;
19235;SDS011;9752;54.270;12.470;2023-08-20T07:39:04;16.50;;;13.47;;
19235;SDS011;9752;54.270;12.470;2023-08-20T07:44:06;13.83;;;12.43;;
19235;SDS011;9752;54.270;12.470;2023-08-20T07:49:09;14.83;;;13.23;;
19235;SDS011;9752;54.270;12.470;2023-08-20T07:54:11;16.67;;;12.10;;
19235;SDS011;9752;54.270;12.470;2023-08-20T07:59:12;15.33;;;13.00;;
19235;SDS011;9752;54.270;12.470;2023-08-20T08:04:15;15.57;;;12.70;;
19235;SDS011;9752;54.270;12.470;2023-08-20T08:09:20;22.40;;;13.43;;
19235;SDS011;9752;54.270;12.470;2023-08-20T08:14:23;14.90;;;11.47;;
19235;SDS011;9752;54.270;12.470;2023-08-20T08:19:26;14.97;;;11.37;;
19235;SDS011;9752;54.270;12.470;2023-08-20T08:24:28;12.23;;;11.07;;
19235;SDS011;9752;54.270;12.470;2023-08-20T08:29:29;18.87;;;11.40;;
19235;SDS011;9752;54.270;12.470;2023-08-20T08:34:32;13.80;;;12.33;;
19235;SDS011;9752;54.270;12.470;2023-08-20T08:39:34;13.40;;;11.67;;
19235;SDS011;9752;54.270;12.470;2023-08-20T08:44:36;16.53;;;11.87;;
19235;SDS011;9752;54.270;12.470;2023-08-20T08:49:39;17.43;;;12.37;;
19235;SDS011;9752;54.270;12.470;2023-08-20T08:54:41;12.73;;;10.93;;
19235;SDS011;9752;54.270;12.470;2023-08-20T08:59:45;14.77;;;10.80;;
19235;SDS011;9752;54.270;12.470;2023-08-20T09:04:48;17.97;;;10.20;;
19235;SDS011;9752;54.270;12.470;2023-08-20T09:09:49;11.30;;;10.20;;
19235;SDS011;9752;54.270;12.470;2023-08-20T09:14:51;10.83;;;9.73;;
19235;SDS011;9752;54.270;12.470;2023-08-20T09:19:56;13.23;;;10.13;;
19235;SDS011;9752;54.270;12.470;2023-08-20T09:24:58;12.27;;;9.93;;
19235;SDS011;9752;54.270;12.470;2023-08-20T09:30:00;14.03;;;9.70;;
19235;SDS011;9752;54.270;12.470;2023-08-20T09:35:03;12.33;;;9.27;;
19235;SDS011;9752;54.270;12.470;2023-08-20T09:40:05;10.53;;;9.47;;
19235;SDS011;9752;54.270;12.470;2023-08-20T09:45:08;13.07;;;9.87;;
19235;SDS011;9752;54.270;12.470;2023-08-20T09:50:12;11.83;;;9.20;;
19235;SDS011;9752;54.270;12.470;2023-08-20T09:55:16;14.20;;;9.53;;
19235;SDS011;9752;54.270;12.470;2023-08-20T10:00:20;12.37;;;10.33;;
19235;SDS011;9752;54.270;12.470;2023-08-20T10:05:24;11.33;;;9.77;;
19235;SDS011;9752;54.270;12.470;2023-08-20T10:10:26;11.83;;;9.50;;
19235;SDS011;9752;54.270;12.470;2023-08-20T10:15:28;11.47;;;9.53;;
19235;SDS011;9752;54.270;12.470;2023-08-20T10:20:33;10.90;;;9.80;;
19235;SDS011;9752;54.270;12.470;2023-08-20T10:25:40;11.60;;;10.20;;
19235;SDS011;9752;54.270;12.470;2023-08-20T10:31:02;11.43;;;10.37;;
19235;SDS011;9752;54.270;12.470;2023-08-20T10:36:08;12.93;;;10.43;;
19235;SDS011;9752;54.270;12.470;2023-08-20T10:41:15;10.60;;;9.67;;
19235;SDS011;9752;54.270;12.470;2023-08-20T10:46:18;14.37;;;10.27;;
19235;SDS011;9752;54.270;12.470;2023-08-20T10:51:25;12.90;;;10.00;;
19235;SDS011;9752;54.270;12.470;2023-08-20T10:56:37;12.07;;;11.03;;
19235;SDS011;9752;54.270;12.470;2023-08-20T11:01:40;12.27;;;10.63;;
19235;SDS011;9752;54.270;12.470;2023-08-20T11:06:46;11.80;;;10.70;;
19235;SDS011;9752;54.270;12.470;2023-08-20T11:11:51;15.40;;;11.13;;
19235;SDS011;9752;54.270;12.470;2023-08-20T11:16:52;11.07;;;9.90;;
19235;SDS011;9752;54.270;12.470;2023-08-20T11:21:56;11.60;;;10.57;;
19235;SDS011;9752;54.270;12.470;2023-08-20T11:26:58;11.93;;;10.80;;
19235;SDS011;9752;54.270;12.470;2023-08-20T11:31:59;14.83;;;10.70;;
19235;SDS011;9752;54.270;12.470;2023-08-20T11:37:04;17.03;;;11.30;;
19235;SDS011;9752;54.270;12.470;2023-08-20T11:42:06;13.00;;;10.97;;
19235;SDS011;9752;54.270;12.470;2023-08-20T11:47:12;19.30;;;10.67;;
19235;SDS011;9752;54.270;12.470;2023-08-20T11:52:18;12.53;;;10.40;;
19235;SDS011;9752;54.270;12.470;2023-08-20T11:57:20;12.67;;;11.60;;
19235;SDS011;9752;54.270;12.470;2023-08-20T12:02:26;20.53;;;11.10;;
19235;SDS011;9752;54.270;12.470;2023-08-20T12:07:29;11.90;;;10.83;;
19235;SDS011;9752;54.270;12.470;2023-08-20T12:12:31;15.90;;;11.70;;
19235;SDS011;9752;54.270;12.470;2023-08-20T12:17:35;12.73;;;11.00;;
19235;SDS011;9752;54.270;12.470;2023-08-20T12:22:38;11.70;;;10.63;;
19235;SDS011;9752;54.270;12.470;2023-08-20T12:27:39;13.83;;;11.70;;
19235;SDS011;9752;54.270;12.470;2023-08-20T12:32:42;12.87;;;11.57;;
19235;SDS011;9752;54.270;12.470;2023-08-20T12:37:45;12.03;;;11.00;;
19235;SDS011;9752;54.270;12.470;2023-08-20T12:42:47;11.93;;;10.80;;
19235;SDS011;9752;54.270;12.470;2023-08-20T12:47:48;12.60;;;11.60;;
19235;SDS011;9752;54.270;12.470;2023-08-20T12:52:51;12.80;;;11.47;;
19235;SDS011;9752;54.270;12.470;2023-08-20T12:57:53;13.83;;;12.27;;
19235;SDS011;9752;54.270;12.470;2023-08-20T13:02:56;12.80;;;11.70;;
19235;SDS011;9752;54.270;12.470;2023-08-20T13:08:00;14.30;;;13.30;;
19235;SDS011;9752;54.270;12.470;2023-08-20T13:13:02;13.43;;;12.47;;
19235;SDS011;9752;54.270;12.470;2023-08-20T13:18:04;12.70;;;11.90;;
19235;SDS011;9752;54.270;12.470;2023-08-20T13:23:09;14.37;;;13.27;;
19235;SDS011;9752;54.270;12.470;2023-08-20T13:28:10;13.70;;;12.60;;
19235;SDS011;9752;54.270;12.470;2023-08-20T13:33:12;14.40;;;13.23;;
19235;SDS011;9752;54.270;12.470;2023-08-20T13:38:15;14.53;;;13.63;;
19235;SDS011;9752;54.270;12.470;2023-08-20T13:43:17;17.70;;;15.47;;
19235;SDS011;9752;54.270;12.470;2023-08-20T13:48:19;15.43;;;14.37;;
19235;SDS011;9752;54.270;12.470;2023-08-20T13:53:22;16.80;;;15.33;;
19235;SDS011;9752;54.270;12.470;2023-08-20T13:58:23;16.17;;;15.10;;
19235;SDS011;9752;54.270;12.470;2023-08-20T14:03:25;16.80;;;15.50;;
19235;SDS011;9752;54.270;12.470;2023-08-20T14:08:28;15.70;;;14.50;;
19235;SDS011;9752;54.270;12.470;2023-08-20T14:13:29;16.07;;;14.87;;
19235;SDS011;9752;54.270;12.470;2023-08-20T14:18:31;14.37;;;13.37;;
19235;SDS011;9752;54.270;12.470;2023-08-20T14:23:34;16.20;;;15.20;;
19235;SDS011;9752;54.270;12.470;2023-08-20T14:28:36;16.40;;;15.20;;
19235;SDS011;9752;54.270;12.470;2023-08-20T14:33:38;16.20;;;15.07;;
19235;SDS011;9752;54.270;12.470;2023-08-20T14:38:40;16.20;;;15.10;;
19235;SDS011;9752;54.270;12.470;2023-08-20T14:43:43;17.00;;;15.97;;
19235;SDS011;9752;54.270;12.470;2023-08-20T14:48:45;19.53;;;18.00;;
19235;SDS011;9752;54.270;12.470;2023-08-20T14:53:48;17.10;;;16.20;;
19235;SDS011;9752;54.270;12.470;2023-08-20T14:58:50;17.33;;;16.30;;
19235;SDS011;9752;54.270;12.470;2023-08-20T15:03:51;17.20;;;16.23;;
19235;SDS011;9752;54.270;12.470;2023-08-20T15:08:54;17.15;;;16.25;;
19235;SDS011;9752;54.270;12.470;2023-08-20T15:13:56;17.83;;;16.60;;
19235;SDS011;9752;54.270;12.470;2023-08-20T15:18:57;17.38;;;16.17;;
19235;SDS011;9752;54.270;12.470;2023-08-20T15:24:00;18.42;;;17.15;;
19235;SDS011;9752;54.270;12.470;2023-08-20T15:29:04;17.23;;;16.42;;
19235;SDS011;9752;54.270;12.470;2023-08-20T15:34:05;17.90;;;16.80;;
19235;SDS011;9752;54.270;12.470;2023-08-20T15:39:08;17.80;;;16.55;;
19235;SDS011;9752;54.270;12.470;2023-08-20T15:44:12;18.10;;;16.85;;
19235;SDS011;9752;54.270;12.470;2023-08-20T15:49:14;17.30;;;16.30;;
19235;SDS011;9752;54.270;12.470;2023-08-20T15:54:17;17.30;;;16.38;;
19235;SDS011;9752;54.270;12.470;2023-08-20T15:59:19;17.83;;;16.75;;
19235;SDS011;9752;54.270;12.470;2023-08-20T16:04:20;17.35;;;16.35;;
19235;SDS011;9752;54.270;12.470;2023-08-20T16:09:23;18.17;;;17.13;;
19235;SDS011;9752;54.270;12.470;2023-08-20T16:14:25;17.75;;;16.63;;
19235;SDS011;9752;54.270;12.470;2023-08-20T16:19:27;17.20;;;16.30;;
19235;SDS011;9752;54.270;12.470;2023-08-20T16:24:30;16.90;;;16.00;;
19235;SDS011;9752;54.270;12.470;2023-08-20T16:29:31;16.83;;;15.95;;
19235;SDS011;9752;54.270;12.470;2023-08-20T16:34:33;16.52;;;15.63;;
19235;SDS011;9752;54.270;12.470;2023-08-20T16:39:36;16.63;;;15.40;;
19235;SDS011;9752;54.270;12.470;2023-08-20T16:44:38;17.30;;;16.17;;
19235;SDS011;9752;54.270;12.470;2023-08-20T16:49:40;16.77;;;15.68;;
19235;SDS011;9752;54.270;12.470;2023-08-20T16:54:45;16.35;;;15.52;;
19235;SDS011;9752;54.270;12.470;2023-08-20T16:59:48;16.45;;;15.38;;
19235;SDS011;9752;54.270;12.470;2023-08-20T17:04:49;15.88;;;15.15;;
19235;SDS011;9752;54.270;12.470;2023-08-20T17:09:52;16.10;;;15.20;;
19235;SDS011;9752;54.270;12.470;2023-08-20T17:14:54;16.60;;;15.50;;
19235;SDS011;9752;54.270;12.470;2023-08-20T17:19:56;16.63;;;15.32;;
19235;SDS011;9752;54.270;12.470;2023-08-20T17:24:59;16.05;;;15.10;;
19235;SDS011;9752;54.270;12.470;2023-08-20T17:30:00;15.57;;;14.77;;
19235;SDS011;9752;54.270;12.470;2023-08-20T17:35:08;15.07;;;14.20;;
19235;SDS011;9752;54.270;12.470;2023-08-20T17:40:11;15.60;;;14.70;;
19235;SDS011;9752;54.270;12.470;2023-08-20T17:45:13;17.02;;;15.90;;
19235;SDS011;9752;54.270;12.470;2023-08-20T17:50:14;17.33;;;16.20;;
19235;SDS011;9752;54.270;12.470;2023-08-20T17:55:18;17.20;;;16.10;;
19235;SDS011;9752;54.270;12.470;2023-08-20T18:00:19;18.90;;;17.70;;
19235;SDS011;9752;54.270;12.470;2023-08-20T18:05:21;18.40;;;17.10;;
19235;SDS011;9752;54.270;12.470;2023-08-20T18:10:24;17.17;;;16.17;;
19235;SDS011;9752;54.270;12.470;2023-08-20T18:15:26;16.00;;;14.90;;
19235;SDS011;9752;54.270;12.470;2023-08-20T18:20:28;14.97;;;14.00;;
19235;SDS011;9752;54.270;12.470;2023-08-20T18:25:31;11.90;;;10.90;;
19235;SDS011;9752;54.270;12.470;2023-08-20T18:30:34;10.63;;;9.83;;
19235;SDS011;9752;54.270;12.470;2023-08-20T18:35:36;9.13;;;8.53;;
19235;SDS011;9752;54.270;12.470;2023-08-20T18:40:39;9.30;;;8.13;;
19235;SDS011;9752;54.270;12.470;2023-08-20T18:45:41;9.37;;;8.03;;
19235;SDS011;9752;54.270;12.470;2023-08-20T18:50:42;11.93;;;6.93;;
19235;SDS011;9752;54.270;12.470;2023-08-20T18:55:45;7.13;;;5.90;;
19235;SDS011;9752;54.270;12.470;2023-08-20T19:00:47;9.83;;;6.83;;
19235;SDS011;9752;54.270;12.470;2023-08-20T19:05:49;11.10;;;6.70;;
19235;SDS011;9752;54.270;12.470;2023-08-20T19:10:52;7.23;;;6.13;;
19235;SDS011;9752;54.270;12.470;2023-08-20T19:15:54;6.97;;;5.80;;
19235;SDS011;9752;54.270;12.470;2023-08-20T19:20:56;10.03;;;6.43;;
19235;SDS011;9752;54.270;12.470;2023-08-20T19:25:59;9.43;;;5.63;;
19235;SDS011;9752;54.270;12.470;2023-08-20T19:31:01;8.07;;;5.20;;
19235;SDS011;9752;54.270;12.470;2023-08-20T19:36:03;14.97;;;6.63;;
19235;SDS011;9752;54.270;12.470;2023-08-20T19:41:06;8.27;;;5.97;;
19235;SDS011;9752;54.270;12.470;2023-08-20T19:46:08;10.23;;;5.60;;
19235;SDS011;9752;54.270;12.470;2023-08-20T19:51:09;7.03;;;6.17;;
19235;SDS011;9752;54.270;12.470;2023-08-20T19:56:12;9.53;;;5.23;;
19235;SDS011;9752;54.270;12.470;2023-08-20T20:01:14;7.90;;;5.87;;
19235;SDS011;9752;54.270;12.470;2023-08-20T20:06:16;9.47;;;6.33;;
19235;SDS011;9752;54.270;12.470;2023-08-20T20:11:19;9.60;;;6.70;;
19235;SDS011;9752;54.270;12.470;2023-08-20T20:16:20;9.23;;;6.70;;
19235;SDS011;9752;54.270;12.470;2023-08-20T20:21:22;11.90;;;7.40;;
19235;SDS011;9752;54.270;12.470;2023-08-20T20:26:25;10.90;;;6.87;;
19235;SDS011;9752;54.270;12.470;2023-08-20T20:31:27;7.23;;;6.53;;
19235;SDS011;9752;54.270;12.470;2023-08-20T20:36:28;17.33;;;7.73;;
19235;SDS011;9752;54.270;12.470;2023-08-20T20:41:31;13.23;;;7.10;;
19235;SDS011;9752;54.270;12.470;2023-08-20T20:46:33;11.10;;;7.17;;
19235;SDS011;9752;54.270;12.470;2023-08-20T20:51:35;9.40;;;7.03;;
19235;SDS011;9752;54.270;12.470;2023-08-20T20:56:38;9.17;;;6.87;;
19235;SDS011;9752;54.270;12.470;2023-08-20T21:01:39;8.57;;;6.50;;
19235;SDS011;9752;54.270;12.470;2023-08-20T21:06:41;8.33;;;6.90;;
19235;SDS011;9752;54.270;12.470;2023-08-20T21:11:44;13.53;;;6.80;;
19235;SDS011;9752;54.270;12.470;2023-08-20T21:16:45;10.17;;;7.07;;
19235;SDS011;9752;54.270;12.470;2023-08-20T21:21:47;11.23;;;6.53;;
19235;SDS011;9752;54.270;12.470;2023-08-20T21:26:50;9.63;;;6.17;;
19235;SDS011;9752;54.270;12.470;2023-08-20T21:31:52;9.70;;;7.13;;
19235;SDS011;9752;54.270;12.470;2023-08-20T21:36:53;9.87;;;6.70;;
19235;SDS011;9752;54.270;12.470;2023-08-20T21:41:56;11.23;;;7.33;;
19235;SDS011;9752;54.270;12.470;2023-08-20T21:46:59;11.77;;;6.80;;
19235;SDS011;9752;54.270;12.470;2023-08-20T21:52:01;11.40;;;7.10;;
19235;SDS011;9752;54.270;12.470;2023-08-20T21:57:07;13.00;;;7.87;;
19235;SDS011;9752;54.270;12.470;2023-08-20T22:02:09;10.10;;;7.60;;
19235;SDS011;9752;54.270;12.470;2023-08-20T22:07:11;10.47;;;8.13;;
19235;SDS011;9752;54.270;12.470;2023-08-20T22:12:13;10.30;;;7.67;;
19235;SDS011;9752;54.270;12.470;2023-08-20T22:17:15;11.40;;;7.73;;
19235;SDS011;9752;54.270;12.470;2023-08-20T22:22:17;15.77;;;6.67;;
19235;SDS011;9752;54.270;12.470;2023-08-20T22:27:20;15.73;;;7.30;;
19235;SDS011;9752;54.270;12.470;2023-08-20T22:32:21;10.57;;;7.53;;
19235;SDS011;9752;54.270;12.470;2023-08-20T22:37:23;12.27;;;7.37;;
19235;SDS011;9752;54.270;12.470;2023-08-20T22:42:26;11.80;;;7.23;;
19235;SDS011;9752;54.270;12.470;2023-08-20T22:47:28;10.23;;;7.17;;
19235;SDS011;9752;54.270;12.470;2023-08-20T22:52:29;15.07;;;8.00;;
19235;SDS011;9752;54.270;12.470;2023-08-20T22:57:32;14.70;;;8.07;;
19235;SDS011;9752;54.270;12.470;2023-08-20T23:02:34;8.53;;;7.53;;
19235;SDS011;9752;54.270;12.470;2023-08-20T23:07:36;8.47;;;7.23;;
19235;SDS011;9752;54.270;12.470;2023-08-20T23:12:39;7.93;;;7.13;;
19235;SDS011;9752;54.270;12.470;2023-08-20T23:17:40;11.13;;;7.13;;
19235;SDS011;9752;54.270;12.470;2023-08-20T23:22:42;10.00;;;7.33;;
19235;SDS011;9752;54.270;12.470;2023-08-20T23:27:45;11.77;;;7.80;;
19235;SDS011;9752;54.270;12.470;2023-08-20T23:32:48;11.13;;;8.27;;
19235;SDS011;9752;54.270;12.470;2023-08-20T23:37:51;10.70;;;8.33;;
19235;SDS011;9752;54.270;12.470;2023-08-20T23:42:54;18.50;;;8.60;;
19235;SDS011;9752;54.270;12.470;2023-08-20T23:47:55;10.40;;;7.97;;
19235;SDS011;9752;54.270;12.470;2023-08-20T23:52:57;15.23;;;9.13;;
19235;SDS011;9752;54.270;12.470;2023-08-20T23:58:00;11.80;;;8.90;;
